createdAt,value
2018-11-04T00:01:39.605Z,8.17
2018-11-04T00:04:14.140Z,9.10
2018-11-04T00:07:05.427Z,8.30
2018-11-04T00:09:39.201Z,8.27
2018-11-04T00:12:18.081Z,8.60
2018-11-04T00:14:51.850Z,8.30
2018-11-04T00:17:27.753Z,8.37
2018-11-04T00:20:01.543Z,8.83
2018-11-04T00:22:39.313Z,8.73
2018-11-04T00:25:14.134Z,8.53
2018-11-04T00:27:50.089Z,8.30
2018-11-04T00:30:23.878Z,8.20
2018-11-04T00:32:58.852Z,9.23
2018-11-04T00:35:32.671Z,9.07
2018-11-04T00:38:09.666Z,9.43
2018-11-04T00:40:43.513Z,9.20
2018-11-04T00:43:18.540Z,8.30
2018-11-04T00:45:52.372Z,9.10
2018-11-04T00:48:38.076Z,9.60
2018-11-04T00:51:11.885Z,8.10
2018-11-04T01:02:48.511Z,8.33
2018-11-04T01:05:22.348Z,8.90
2018-11-04T01:08:07.356Z,8.57
2018-11-04T01:10:41.215Z,8.90
2018-11-04T01:16:36.656Z,8.30
2018-11-04T01:19:10.502Z,9.60
2018-11-04T01:21:50.145Z,9.13
2018-11-04T01:24:24.007Z,8.50
2018-11-04T01:27:03.345Z,9.37
2018-11-04T01:29:37.268Z,8.97
2018-11-04T01:32:33.378Z,8.23
2018-11-04T01:35:07.708Z,7.77
2018-11-04T01:37:43.737Z,7.53
2018-11-04T01:40:17.783Z,8.67
2018-11-04T01:48:53.506Z,7.70
2018-11-04T01:51:27.392Z,7.50
2018-11-04T02:09:00.665Z,10.87
2018-11-04T02:11:34.547Z,11.30
2018-11-04T02:20:06.225Z,11.33
2018-11-04T02:22:40.393Z,10.73
2018-11-04T02:31:27.635Z,10.43
2018-11-04T02:34:01.478Z,11.37
2018-11-04T02:42:44.612Z,11.33
2018-11-04T02:45:18.554Z,10.93
2018-11-04T02:47:58.068Z,11.73
2018-11-04T02:50:31.995Z,10.63
2018-11-04T02:53:10.041Z,10.50
2018-11-04T02:55:44.027Z,8.83
2018-11-04T02:58:21.243Z,9.73
2018-11-04T03:00:55.152Z,9.07
2018-11-04T03:09:28.931Z,8.80
2018-11-04T03:12:02.909Z,8.33
2018-11-04T03:14:49.715Z,8.23
2018-11-04T03:17:23.634Z,8.77
2018-11-04T03:19:58.648Z,8.30
2018-11-04T03:22:32.636Z,8.60
2018-11-04T03:25:07.747Z,8.10
2018-11-04T03:27:41.639Z,7.97
2018-11-04T03:30:17.469Z,8.27
2018-11-04T03:32:51.262Z,7.83
2018-11-04T03:35:25.087Z,8.63
2018-11-04T03:37:58.917Z,9.47
2018-11-04T03:40:32.808Z,9.57
2018-11-04T03:43:06.661Z,9.40
2018-11-04T03:45:43.467Z,10.87
2018-11-04T03:48:17.301Z,10.67
2018-11-04T03:50:52.093Z,10.80
2018-11-04T03:53:25.912Z,10.07
2018-11-04T03:56:00.755Z,10.17
2018-11-04T03:58:34.579Z,10.40
2018-11-04T04:01:09.372Z,11.07
2018-11-04T04:03:43.531Z,11.30
2018-11-04T04:06:18.338Z,11.13
2018-11-04T04:08:52.179Z,11.33
2018-11-04T04:11:26.055Z,10.00
2018-11-04T04:13:59.904Z,11.10
2018-11-04T04:16:33.772Z,10.93
2018-11-04T04:19:07.600Z,11.93
2018-11-04T04:21:41.818Z,11.67
2018-11-04T04:24:15.642Z,11.70
2018-11-04T04:26:49.497Z,11.17
2018-11-04T04:29:23.301Z,11.30
2018-11-04T04:31:58.147Z,10.27
2018-11-04T04:34:32.012Z,10.23
2018-11-04T04:37:09.457Z,10.03
2018-11-04T04:39:43.414Z,10.07
2018-11-04T04:42:21.257Z,9.97
2018-11-04T04:44:55.078Z,9.90
2018-11-04T04:47:29.914Z,10.60
2018-11-04T04:50:03.903Z,10.63
2018-11-04T04:52:39.750Z,9.77
2018-11-04T04:55:13.571Z,10.17
2018-11-04T04:57:48.473Z,10.10
2018-11-04T05:00:22.298Z,10.43
2018-11-04T05:02:57.150Z,10.93
2018-11-04T05:05:30.974Z,10.73
2018-11-04T05:08:06.769Z,11.47
2018-11-04T05:10:40.727Z,11.07
2018-11-04T05:13:15.700Z,10.73
2018-11-04T05:15:49.555Z,10.70
2018-11-04T05:18:24.337Z,10.60
2018-11-04T05:20:58.158Z,11.73
2018-11-04T05:23:31.987Z,12.30
2018-11-04T05:26:06.408Z,11.00
2018-11-04T05:28:47.354Z,11.60
2018-11-04T05:31:21.151Z,11.20
2018-11-04T05:33:55.090Z,12.70
2018-11-04T05:36:28.877Z,11.50
2018-11-04T05:39:02.866Z,11.50
2018-11-04T05:41:36.869Z,11.30
2018-11-04T05:44:12.580Z,12.03
2018-11-04T05:46:46.389Z,11.47
2018-11-04T05:49:20.338Z,12.17
2018-11-04T05:51:54.513Z,12.13
2018-11-04T05:54:28.491Z,11.60
2018-11-04T05:57:02.336Z,11.70
2018-11-04T05:59:37.308Z,12.33
2018-11-04T06:02:11.153Z,12.43
2018-11-04T06:04:49.654Z,12.13
2018-11-04T06:07:23.521Z,12.03
2018-11-04T06:10:01.415Z,11.73
2018-11-04T06:12:35.378Z,11.40
2018-11-04T06:15:10.412Z,12.23
2018-11-04T06:17:44.245Z,12.30
2018-11-04T06:20:18.373Z,12.13
2018-11-04T06:22:52.188Z,12.90
2018-11-04T06:25:27.112Z,11.70
2018-11-04T06:28:00.946Z,12.90
2018-11-04T06:30:34.821Z,13.50
2018-11-04T06:33:08.689Z,13.50
2018-11-04T06:35:45.837Z,13.30
2018-11-04T06:38:19.709Z,14.07
2018-11-04T06:40:54.862Z,15.70
2018-11-04T06:43:28.874Z,14.17
2018-11-04T06:46:03.094Z,15.20
2018-11-04T06:48:36.956Z,14.63
2018-11-04T06:51:11.337Z,14.93
2018-11-04T06:53:45.171Z,15.23
2018-11-04T06:56:19.539Z,16.23
2018-11-04T06:58:53.360Z,16.40
2018-11-04T07:01:29.311Z,16.17
2018-11-04T07:04:15.299Z,18.10
2018-11-04T07:06:49.329Z,17.17
2018-11-04T07:09:23.473Z,17.93
2018-11-04T07:11:57.273Z,17.70
2018-11-04T07:14:31.715Z,18.50
2018-11-04T07:17:05.679Z,17.73
2018-11-04T07:19:42.047Z,17.90
2018-11-04T07:22:15.878Z,17.37
2018-11-04T07:24:52.226Z,17.17
2018-11-04T07:27:26.059Z,18.10
2018-11-04T07:30:00.533Z,17.73
2018-11-04T07:32:34.329Z,17.53
2018-11-04T07:35:09.190Z,17.50
2018-11-04T07:37:43.012Z,18.07
2018-11-04T07:40:17.971Z,17.70
2018-11-04T07:42:51.843Z,17.60
2018-11-04T07:45:26.074Z,18.10
2018-11-04T07:47:59.979Z,18.03
2018-11-04T07:50:48.300Z,17.70
2018-11-04T07:53:22.253Z,16.70
2018-11-04T07:55:57.443Z,17.37
2018-11-04T07:58:31.296Z,16.73
2018-11-04T08:01:21.056Z,16.47
2018-11-04T08:03:55.025Z,16.80
2018-11-04T08:06:45.158Z,17.37
2018-11-04T08:09:19.039Z,17.07
2018-11-04T08:11:55.471Z,17.77
2018-11-04T08:14:29.470Z,17.70
2018-11-04T08:17:03.534Z,18.03
2018-11-04T08:19:37.387Z,16.87
2018-11-04T08:22:12.282Z,17.77
2018-11-04T08:24:46.236Z,16.70
2018-11-04T08:30:19.294Z,17.63
2018-11-04T08:32:53.152Z,17.77
2018-11-04T08:38:31.396Z,16.57
2018-11-04T08:41:05.360Z,18.03
2018-11-04T08:43:43.746Z,17.50
2018-11-04T08:46:17.636Z,17.07
2018-11-04T08:48:52.826Z,15.90
2018-11-04T08:51:26.729Z,17.77
2018-11-04T08:54:08.069Z,15.40
2018-11-04T08:56:41.973Z,17.33
2018-11-04T08:59:15.981Z,16.83
2018-11-04T09:01:55.349Z,16.40
2018-11-04T09:04:29.268Z,17.43
2018-11-04T09:07:03.492Z,15.93
2018-11-04T09:09:37.738Z,16.03
2018-11-04T09:12:13.936Z,15.90
2018-11-04T09:14:47.899Z,14.67
2018-11-04T09:17:40.766Z,17.90
2018-11-04T09:20:15.906Z,16.43
2018-11-04T09:22:50.006Z,17.70
2018-11-04T09:25:23.882Z,15.77
2018-11-04T09:28:09.406Z,17.63
2018-11-04T09:30:43.316Z,17.27
2018-11-04T09:33:22.757Z,16.23
2018-11-04T09:35:56.906Z,17.87
2018-11-04T09:38:34.298Z,18.43
2018-11-04T09:41:08.259Z,17.40
2018-11-04T09:43:43.235Z,18.10
2018-11-04T09:46:17.163Z,17.13
2018-11-04T09:48:54.547Z,16.77
2018-11-04T09:51:28.442Z,16.77
2018-11-04T09:54:04.722Z,17.30
2018-11-04T09:56:38.662Z,17.53
2018-11-04T09:59:20.979Z,17.40
2018-11-04T10:01:54.867Z,19.17
2018-11-04T10:04:29.819Z,18.87
2018-11-04T10:07:03.873Z,19.03
2018-11-04T10:09:41.838Z,16.37
2018-11-04T10:12:15.691Z,19.03
2018-11-04T10:14:52.919Z,17.63
2018-11-04T10:17:26.760Z,18.63
2018-11-04T10:20:01.104Z,19.03
2018-11-04T10:22:34.935Z,16.87
2018-11-04T10:25:19.053Z,18.60
2018-11-04T10:27:53.019Z,17.27
2018-11-04T10:30:31.544Z,19.57
2018-11-04T10:33:05.932Z,19.17
2018-11-04T10:35:40.917Z,18.07
2018-11-04T10:38:14.866Z,18.53
2018-11-04T10:40:52.198Z,19.73
2018-11-04T10:43:26.121Z,18.23
2018-11-04T10:46:04.914Z,19.57
2018-11-04T10:48:38.870Z,19.90
2018-11-04T10:51:18.214Z,19.23
2018-11-04T10:53:52.250Z,18.50
2018-11-04T10:56:27.246Z,18.37
2018-11-04T10:59:01.204Z,18.17
2018-11-04T11:01:38.613Z,19.67
2018-11-04T11:04:12.666Z,18.67
2018-11-04T11:07:08.850Z,19.43
2018-11-04T11:09:42.796Z,19.87
2018-11-04T11:12:16.748Z,20.57
2018-11-04T11:14:50.621Z,19.50
2018-11-04T11:17:25.668Z,21.00
2018-11-04T11:19:59.560Z,20.50
2018-11-04T11:22:33.578Z,21.30
2018-11-04T11:25:08.061Z,22.10
2018-11-04T11:27:41.983Z,21.70
2018-11-04T11:30:15.861Z,22.87
2018-11-04T11:32:49.852Z,21.33
2018-11-04T11:35:23.735Z,21.13
2018-11-04T11:37:58.796Z,20.70
2018-11-04T11:40:32.661Z,21.60
2018-11-04T11:43:07.670Z,22.07
2018-11-04T11:45:41.566Z,21.00
2018-11-04T11:48:18.902Z,24.23
2018-11-04T11:50:52.734Z,23.43
2018-11-04T11:53:27.725Z,23.27
2018-11-04T11:56:01.625Z,24.33
2018-11-04T11:58:36.534Z,23.97
2018-11-04T12:01:10.397Z,22.23
2018-11-04T12:03:45.336Z,24.70
2018-11-04T12:06:19.145Z,24.60
2018-11-04T12:08:54.032Z,23.33
2018-11-04T12:11:27.878Z,25.37
2018-11-04T12:14:01.747Z,25.33
2018-11-04T12:16:35.592Z,24.57
2018-11-04T12:19:09.668Z,25.87
2018-11-04T12:21:43.488Z,24.67
2018-11-04T12:24:17.388Z,24.03
2018-11-04T12:26:51.188Z,23.60
2018-11-04T12:29:27.037Z,25.57
2018-11-04T12:32:00.875Z,23.03
2018-11-04T12:34:34.752Z,24.60
2018-11-04T12:37:08.838Z,23.30
2018-11-04T12:39:42.694Z,23.50
2018-11-04T12:42:16.520Z,22.70
2018-11-04T12:44:50.436Z,21.03
2018-11-04T12:47:24.289Z,21.17
2018-11-04T12:49:59.176Z,20.17
2018-11-04T12:52:33.097Z,20.30
2018-11-04T12:55:10.505Z,20.30
2018-11-04T12:57:44.356Z,21.17
2018-11-04T13:00:19.195Z,20.73
2018-11-04T13:02:53.027Z,20.63
2018-11-04T13:05:28.868Z,20.80
2018-11-04T13:08:02.754Z,20.07
2018-11-04T13:10:37.575Z,20.70
2018-11-04T13:13:11.489Z,20.43
2018-11-04T13:15:47.337Z,20.67
2018-11-04T13:18:21.154Z,22.10
2018-11-04T13:20:55.955Z,20.03
2018-11-04T13:23:29.753Z,20.67
2018-11-04T13:26:03.665Z,19.13
2018-11-04T13:28:37.617Z,20.97
2018-11-04T13:31:13.481Z,20.63
2018-11-04T13:33:47.326Z,20.47
2018-11-04T13:36:22.240Z,20.93
2018-11-04T13:38:56.116Z,20.73
2018-11-04T13:41:32.090Z,20.50
2018-11-04T13:44:06.137Z,21.80
2018-11-04T13:46:41.089Z,21.17
2018-11-04T13:49:15.032Z,21.43
2018-11-04T13:51:49.206Z,22.33
2018-11-04T13:54:23.009Z,20.63
2018-11-04T13:56:58.949Z,22.37
2018-11-04T13:59:32.769Z,22.90
2018-11-04T14:02:17.261Z,20.60
2018-11-04T14:04:51.058Z,22.00
2018-11-04T14:07:26.010Z,21.83
2018-11-04T14:09:59.791Z,22.83
2018-11-04T14:12:34.688Z,22.67
2018-11-04T14:15:08.465Z,21.40
2018-11-04T14:17:43.261Z,22.33
2018-11-04T14:20:17.046Z,21.77
2018-11-04T14:22:51.955Z,21.00
2018-11-04T14:25:25.726Z,22.83
2018-11-04T14:28:00.606Z,22.97
2018-11-04T14:30:34.619Z,23.00
2018-11-04T14:33:08.535Z,22.40
2018-11-04T14:35:42.380Z,21.00
2018-11-04T14:38:16.206Z,21.10
2018-11-04T14:40:50.002Z,20.37
2018-11-04T14:43:24.008Z,19.93
2018-11-04T14:45:58.892Z,20.80
2018-11-04T14:48:33.822Z,20.87
2018-11-04T14:51:08.189Z,20.73
2018-11-04T14:53:54.882Z,20.70
2018-11-04T14:59:26.268Z,21.23
2018-11-04T15:02:00.157Z,22.03
2018-11-04T15:04:34.083Z,20.47
2018-11-04T15:07:08.315Z,21.53
2018-11-04T15:09:43.261Z,21.50
2018-11-04T15:12:17.064Z,20.77
2018-11-04T15:14:51.992Z,22.53
2018-11-04T15:17:25.822Z,21.93
2018-11-04T15:19:59.690Z,23.00
2018-11-04T15:22:36.497Z,21.70
2018-11-04T15:25:10.502Z,22.03
2018-11-04T15:27:44.414Z,21.83
2018-11-04T15:30:20.263Z,22.07
2018-11-04T15:32:54.085Z,21.40
2018-11-04T15:35:27.957Z,22.13
2018-11-04T15:38:02.183Z,22.83
2018-11-04T15:40:37.897Z,22.90
2018-11-04T15:43:18.201Z,22.53
2018-11-04T15:45:52.203Z,23.23
2018-11-04T15:48:43.370Z,24.33
2018-11-04T15:51:17.301Z,22.87
2018-11-04T15:56:49.024Z,25.63
2018-11-04T15:59:22.805Z,25.73
2018-11-04T16:01:57.628Z,25.27
2018-11-04T16:04:31.407Z,24.83
2018-11-04T16:07:07.486Z,25.30
2018-11-04T16:09:41.341Z,25.37
2018-11-04T16:12:16.288Z,24.93
2018-11-04T16:14:50.296Z,26.63
2018-11-04T16:17:24.433Z,26.27
2018-11-04T16:19:58.283Z,25.60
2018-11-04T16:22:33.232Z,24.33
2018-11-04T16:25:07.343Z,23.57
2018-11-04T16:27:42.651Z,23.10
2018-11-04T16:30:16.603Z,24.07
2018-11-04T16:32:51.509Z,24.93
2018-11-04T16:35:25.309Z,25.70
2018-11-04T16:38:00.175Z,26.20
2018-11-04T16:40:34.144Z,24.77
2018-11-04T16:43:09.001Z,27.63
2018-11-04T16:45:42.858Z,25.93
2018-11-04T16:48:17.736Z,25.43
2018-11-04T16:50:51.520Z,24.50
2018-11-04T16:53:25.438Z,24.80
2018-11-04T16:55:59.218Z,24.23
2018-11-04T16:58:34.310Z,25.87
2018-11-04T17:01:08.111Z,25.07
2018-11-04T17:03:43.085Z,25.50
2018-11-04T17:06:16.881Z,26.07
2018-11-04T17:08:50.953Z,24.87
2018-11-04T17:11:24.762Z,27.30
2018-11-04T17:13:59.785Z,25.97
2018-11-04T17:16:33.581Z,26.43
2018-11-04T17:19:07.537Z,25.13
2018-11-04T17:21:41.325Z,26.10
2018-11-04T17:24:16.260Z,25.60
2018-11-04T17:26:50.096Z,26.10
2018-11-04T17:29:23.981Z,25.80
2018-11-04T17:31:57.766Z,25.97
2018-11-04T17:34:32.593Z,37.03
2018-11-04T17:37:06.930Z,33.07
2018-11-04T17:39:41.836Z,94.97
2018-11-04T17:42:15.673Z,29.13
2018-11-04T17:44:50.752Z,27.70
2018-11-04T17:47:24.612Z,28.37
2018-11-04T17:49:58.515Z,29.10
2018-11-04T17:52:32.302Z,27.33
2018-11-04T17:55:07.523Z,29.87
2018-11-04T17:57:41.363Z,28.13
2018-11-04T18:00:17.129Z,31.10
2018-11-04T18:02:51.136Z,29.90
2018-11-04T18:05:26.955Z,27.57
2018-11-04T18:08:00.792Z,26.53
2018-11-04T18:10:35.701Z,26.93
2018-11-04T18:13:09.482Z,26.53
2018-11-04T18:15:45.462Z,26.43
2018-11-04T18:18:19.337Z,26.53
2018-11-04T18:20:54.574Z,26.80
2018-11-04T18:23:28.365Z,27.20
2018-11-04T18:26:02.279Z,26.60
2018-11-04T18:28:36.239Z,30.13
2018-11-04T18:31:12.087Z,62.27
2018-11-04T18:33:45.913Z,31.70
2018-11-04T18:36:19.959Z,28.97
2018-11-04T18:38:53.736Z,30.70
2018-11-04T18:41:27.681Z,28.33
2018-11-04T18:44:01.621Z,27.73
2018-11-04T18:46:35.563Z,27.63
2018-11-04T18:49:09.435Z,29.43
2018-11-04T18:51:44.293Z,27.93
2018-11-04T18:54:18.084Z,27.50
2018-11-04T18:56:53.119Z,27.57
2018-11-04T18:59:26.952Z,27.47
2018-11-04T19:02:00.886Z,26.57
2018-11-04T19:04:34.870Z,28.43
2018-11-04T19:07:10.756Z,27.03
2018-11-04T19:09:44.528Z,27.47
2018-11-04T19:12:18.431Z,26.77
2018-11-04T19:14:52.251Z,27.70
2018-11-04T19:17:31.808Z,27.70
2018-11-04T19:20:07.117Z,26.87
2018-11-04T19:22:42.151Z,27.67
2018-11-04T19:25:16.513Z,26.80
2018-11-04T19:27:51.579Z,26.47
2018-11-04T19:30:48.430Z,26.07
2018-11-04T19:33:22.469Z,26.60
2018-11-04T19:35:57.340Z,26.03
2018-11-04T19:38:31.207Z,25.17
2018-11-04T19:41:17.875Z,26.00
2018-11-04T19:43:51.789Z,26.40
2018-11-04T19:46:36.595Z,27.40
2018-11-04T19:49:10.581Z,27.50
2018-11-04T19:52:01.671Z,27.47
2018-11-04T19:54:35.554Z,27.37
2018-11-04T19:57:14.482Z,28.63
2018-11-04T19:59:54.736Z,27.20
2018-11-04T20:05:33.562Z,26.97
2018-11-04T20:08:08.760Z,27.27
2018-11-04T20:14:22.311Z,27.63
2018-11-04T20:16:58.728Z,28.67
2018-11-04T20:19:49.962Z,28.97
2018-11-04T20:22:25.287Z,30.33
2018-11-04T20:27:03.216Z,29.03
2018-11-04T20:32:40.419Z,27.83
2018-11-04T20:37:59.632Z,31.40
2018-11-04T20:40:38.489Z,32.10
2018-11-04T20:56:07.567Z,31.67
2018-11-04T20:58:41.457Z,34.33
2018-11-04T21:01:26.169Z,34.70
2018-11-04T21:04:00.232Z,35.20
2018-11-04T21:06:57.424Z,33.73
2018-11-04T21:09:32.292Z,32.67
2018-11-04T21:12:06.373Z,33.73
2018-11-04T21:14:47.434Z,33.57
2018-11-04T21:17:21.562Z,32.20
2018-11-04T21:20:07.354Z,33.60
2018-11-04T21:22:41.898Z,32.63
2018-11-04T21:25:27.882Z,33.50
2018-11-04T21:28:02.158Z,33.67
2018-11-04T21:30:41.824Z,34.03
2018-11-04T21:33:21.049Z,33.30
2018-11-04T21:36:44.441Z,32.63
2018-11-04T21:39:35.179Z,33.80
2018-11-04T21:42:09.286Z,32.27
2018-11-04T21:45:00.772Z,33.00
2018-11-04T21:47:34.532Z,33.83
2018-11-04T21:50:23.695Z,32.73
2018-11-04T21:52:57.765Z,34.07
2018-11-04T21:55:49.347Z,34.33
2018-11-04T21:58:30.067Z,34.87
2018-11-04T22:01:03.923Z,37.40
2018-11-04T22:03:56.124Z,35.17
2018-11-04T22:06:38.107Z,36.17
2018-11-04T22:09:12.061Z,35.30
2018-11-04T22:11:58.508Z,34.60
2018-11-04T22:14:32.394Z,33.33
2018-11-04T22:17:18.352Z,36.57
2018-11-04T22:19:52.237Z,35.17
2018-11-04T22:22:31.118Z,36.33
2018-11-04T22:25:05.884Z,37.17
2018-11-04T22:27:40.900Z,37.43
2018-11-04T22:30:14.778Z,36.50
2018-11-04T22:32:51.986Z,38.83
2018-11-04T22:35:26.060Z,39.93
2018-11-04T22:37:59.966Z,40.30
2018-11-04T22:40:33.834Z,40.67
2018-11-04T22:43:13.079Z,41.10
2018-11-04T22:45:46.894Z,41.17
2018-11-04T22:48:24.169Z,41.07
2018-11-04T22:50:58.000Z,42.27
2018-11-04T22:53:36.361Z,44.30
2018-11-04T22:56:10.300Z,44.10
2018-11-04T22:58:45.273Z,45.53
2018-11-04T23:01:19.178Z,42.50
2018-11-04T23:03:56.693Z,42.90
2018-11-04T23:06:30.646Z,45.27
2018-11-04T23:12:05.756Z,46.83
2018-11-04T23:14:52.396Z,45.07
2018-11-04T23:17:28.223Z,45.27
2018-11-04T23:20:18.499Z,45.80
2018-11-04T23:23:13.040Z,44.67
2018-11-04T23:25:46.875Z,44.83
2018-11-04T23:28:26.358Z,45.03
2018-11-04T23:31:00.192Z,47.07
2018-11-04T23:33:41.634Z,45.20
2018-11-04T23:36:16.187Z,44.90
2018-11-04T23:38:56.898Z,45.60
2018-11-04T23:41:30.686Z,48.20
2018-11-04T23:44:09.464Z,47.83
2018-11-04T23:46:43.277Z,46.37
2018-11-04T23:49:18.185Z,48.33
2018-11-04T23:51:52.025Z,49.17
2018-11-04T23:57:30.717Z,47.83
